sensor_id;sensor_type;location;lat;lon;timestamp;P1;durP1;ratioP1;P2;durP2;ratioP2
26375;SDS011;30544;42.196;24.336;2022-09-03T00:02:52;35.67;;;26.67;;
26375;SDS011;30544;42.196;24.336;2022-09-03T00:05:28;31.20;;;24.67;;
26375;SDS011;30544;42.196;24.336;2022-09-03T00:08:03;38.05;;;25.33;;
26375;SDS011;30544;42.196;24.336;2022-09-03T00:10:36;30.88;;;23.42;;
26375;SDS011;30544;42.196;24.336;2022-09-03T00:13:11;32.40;;;22.17;;
26375;SDS011;30544;42.196;24.336;2022-09-03T00:15:43;34.03;;;24.67;;
26375;SDS011;30544;42.196;24.336;2022-09-03T00:18:11;34.75;;;24.63;;
26375;SDS011;30544;42.196;24.336;2022-09-03T00:20:43;35.58;;;25.20;;
26375;SDS011;30544;42.196;24.336;2022-09-03T00:23:15;33.22;;;24.23;;
26375;SDS011;30544;42.196;24.336;2022-09-03T00:25:46;31.95;;;22.50;;
26375;SDS011;30544;42.196;24.336;2022-09-03T00:28:18;35.25;;;25.60;;
26375;SDS011;30544;42.196;24.336;2022-09-03T00:30:51;30.73;;;23.13;;
26375;SDS011;30544;42.196;24.336;2022-09-03T00:33:26;32.20;;;23.77;;
26375;SDS011;30544;42.196;24.336;2022-09-03T00:36:02;34.60;;;24.67;;
26375;SDS011;30544;42.196;24.336;2022-09-03T00:38:36;32.33;;;25.00;;
26375;SDS011;30544;42.196;24.336;2022-09-03T00:41:05;31.15;;;23.55;;
26375;SDS011;30544;42.196;24.336;2022-09-03T00:43:43;36.47;;;25.70;;
26375;SDS011;30544;42.196;24.336;2022-09-03T00:46:25;33.90;;;23.88;;
26375;SDS011;30544;42.196;24.336;2022-09-03T00:49:06;36.28;;;24.25;;
26375;SDS011;30544;42.196;24.336;2022-09-03T00:51:48;28.92;;;23.52;;
26375;SDS011;30544;42.196;24.336;2022-09-03T00:54:23;28.33;;;23.23;;
26375;SDS011;30544;42.196;24.336;2022-09-03T00:57:07;28.20;;;22.65;;
26375;SDS011;30544;42.196;24.336;2022-09-03T00:59:50;37.00;;;22.17;;
26375;SDS011;30544;42.196;24.336;2022-09-03T01:02:31;35.58;;;24.10;;
26375;SDS011;30544;42.196;24.336;2022-09-03T01:05:14;30.33;;;23.45;;
26375;SDS011;30544;42.196;24.336;2022-09-03T01:07:53;30.77;;;23.92;;
26375;SDS011;30544;42.196;24.336;2022-09-03T01:10:29;33.08;;;24.63;;
26375;SDS011;30544;42.196;24.336;2022-09-03T01:13:05;28.73;;;23.50;;
26375;SDS011;30544;42.196;24.336;2022-09-03T01:15:39;30.67;;;22.27;;
26375;SDS011;30544;42.196;24.336;2022-09-03T01:18:21;36.33;;;23.60;;
26375;SDS011;30544;42.196;24.336;2022-09-03T01:20:58;27.25;;;22.30;;
26375;SDS011;30544;42.196;24.336;2022-09-03T01:23:58;33.17;;;23.48;;
26375;SDS011;30544;42.196;24.336;2022-09-03T01:27:03;28.05;;;21.42;;
26375;SDS011;30544;42.196;24.336;2022-09-03T01:29:44;29.35;;;22.25;;
26375;SDS011;30544;42.196;24.336;2022-09-03T01:32:21;28.40;;;22.08;;
26375;SDS011;30544;42.196;24.336;2022-09-03T01:34:56;28.25;;;21.27;;
26375;SDS011;30544;42.196;24.336;2022-09-03T01:37:30;29.75;;;21.77;;
26375;SDS011;30544;42.196;24.336;2022-09-03T01:40:07;30.15;;;22.15;;
26375;SDS011;30544;42.196;24.336;2022-09-03T01:42:46;32.42;;;22.83;;
26375;SDS011;30544;42.196;24.336;2022-09-03T01:45:34;28.25;;;21.65;;
26375;SDS011;30544;42.196;24.336;2022-09-03T01:48:13;26.00;;;20.75;;
26375;SDS011;30544;42.196;24.336;2022-09-03T01:50:57;28.45;;;22.08;;
26375;SDS011;30544;42.196;24.336;2022-09-03T01:53:44;30.75;;;21.52;;
26375;SDS011;30544;42.196;24.336;2022-09-03T01:56:27;28.47;;;21.53;;
26375;SDS011;30544;42.196;24.336;2022-09-03T01:59:08;29.45;;;20.13;;
26375;SDS011;30544;42.196;24.336;2022-09-03T02:01:48;26.58;;;20.80;;
26375;SDS011;30544;42.196;24.336;2022-09-03T02:04:19;29.13;;;20.47;;
26375;SDS011;30544;42.196;24.336;2022-09-03T02:06:49;28.52;;;20.75;;
26375;SDS011;30544;42.196;24.336;2022-09-03T02:09:17;31.83;;;20.63;;
26375;SDS011;30544;42.196;24.336;2022-09-03T02:11:45;28.20;;;20.52;;
26375;SDS011;30544;42.196;24.336;2022-09-03T02:14:19;29.05;;;19.80;;
26375;SDS011;30544;42.196;24.336;2022-09-03T02:16:48;25.60;;;17.58;;
26375;SDS011;30544;42.196;24.336;2022-09-03T02:19:15;25.30;;;19.17;;
26375;SDS011;30544;42.196;24.336;2022-09-03T02:21:44;25.17;;;19.05;;
26375;SDS011;30544;42.196;24.336;2022-09-03T02:24:15;28.35;;;18.60;;
26375;SDS011;30544;42.196;24.336;2022-09-03T02:26:42;21.30;;;17.30;;
26375;SDS011;30544;42.196;24.336;2022-09-03T02:29:12;25.02;;;17.35;;
26375;SDS011;30544;42.196;24.336;2022-09-03T02:31:40;24.27;;;17.45;;
26375;SDS011;30544;42.196;24.336;2022-09-03T02:34:09;22.75;;;18.17;;
26375;SDS011;30544;42.196;24.336;2022-09-03T02:36:36;25.27;;;16.00;;
26375;SDS011;30544;42.196;24.336;2022-09-03T02:39:06;29.77;;;17.35;;
26375;SDS011;30544;42.196;24.336;2022-09-03T02:41:33;27.17;;;16.58;;
26375;SDS011;30544;42.196;24.336;2022-09-03T02:44:00;23.80;;;16.30;;
26375;SDS011;30544;42.196;24.336;2022-09-03T02:46:33;28.48;;;16.60;;
26375;SDS011;30544;42.196;24.336;2022-09-03T02:49:04;23.23;;;16.38;;
26375;SDS011;30544;42.196;24.336;2022-09-03T02:51:33;26.92;;;17.33;;
26375;SDS011;30544;42.196;24.336;2022-09-03T02:54:02;22.85;;;16.95;;
26375;SDS011;30544;42.196;24.336;2022-09-03T02:56:29;23.77;;;17.50;;
26375;SDS011;30544;42.196;24.336;2022-09-03T02:58:55;20.77;;;17.20;;
26375;SDS011;30544;42.196;24.336;2022-09-03T03:01:23;20.50;;;15.85;;
26375;SDS011;30544;42.196;24.336;2022-09-03T03:03:50;24.75;;;16.25;;
26375;SDS011;30544;42.196;24.336;2022-09-03T03:06:17;24.83;;;15.00;;
26375;SDS011;30544;42.196;24.336;2022-09-03T03:08:46;26.63;;;15.57;;
26375;SDS011;30544;42.196;24.336;2022-09-03T03:11:14;26.95;;;16.75;;
26375;SDS011;30544;42.196;24.336;2022-09-03T03:13:42;27.58;;;15.40;;
26375;SDS011;30544;42.196;24.336;2022-09-03T03:16:11;27.55;;;16.65;;
26375;SDS011;30544;42.196;24.336;2022-09-03T03:18:39;19.10;;;15.27;;
26375;SDS011;30544;42.196;24.336;2022-09-03T03:21:07;30.90;;;18.80;;
26375;SDS011;30544;42.196;24.336;2022-09-03T03:23:35;23.92;;;16.05;;
26375;SDS011;30544;42.196;24.336;2022-09-03T03:26:05;19.02;;;14.18;;
26375;SDS011;30544;42.196;24.336;2022-09-03T03:28:34;22.55;;;14.93;;
26375;SDS011;30544;42.196;24.336;2022-09-03T03:31:04;20.73;;;13.82;;
26375;SDS011;30544;42.196;24.336;2022-09-03T03:33:32;19.08;;;12.80;;
26375;SDS011;30544;42.196;24.336;2022-09-03T03:36:02;16.92;;;12.45;;
26375;SDS011;30544;42.196;24.336;2022-09-03T03:38:30;14.63;;;11.45;;
26375;SDS011;30544;42.196;24.336;2022-09-03T03:40:56;20.25;;;11.88;;
26375;SDS011;30544;42.196;24.336;2022-09-03T03:43:25;17.52;;;12.00;;
26375;SDS011;30544;42.196;24.336;2022-09-03T03:45:55;15.50;;;11.70;;
26375;SDS011;30544;42.196;24.336;2022-09-03T03:48:23;16.52;;;11.02;;
26375;SDS011;30544;42.196;24.336;2022-09-03T03:50:49;24.17;;;11.73;;
26375;SDS011;30544;42.196;24.336;2022-09-03T03:53:16;21.45;;;10.85;;
26375;SDS011;30544;42.196;24.336;2022-09-03T03:55:52;17.50;;;10.95;;
26375;SDS011;30544;42.196;24.336;2022-09-03T03:58:19;15.48;;;11.43;;
26375;SDS011;30544;42.196;24.336;2022-09-03T04:00:48;15.98;;;10.23;;
26375;SDS011;30544;42.196;24.336;2022-09-03T04:03:15;19.05;;;11.85;;
26375;SDS011;30544;42.196;24.336;2022-09-03T04:05:42;17.75;;;11.82;;
26375;SDS011;30544;42.196;24.336;2022-09-03T04:08:09;15.60;;;11.75;;
26375;SDS011;30544;42.196;24.336;2022-09-03T04:10:37;22.58;;;13.63;;
26375;SDS011;30544;42.196;24.336;2022-09-03T04:13:04;17.30;;;11.90;;
26375;SDS011;30544;42.196;24.336;2022-09-03T04:15:31;17.75;;;12.38;;
26375;SDS011;30544;42.196;24.336;2022-09-03T04:17:59;22.80;;;14.30;;
26375;SDS011;30544;42.196;24.336;2022-09-03T04:20:26;25.48;;;14.15;;
26375;SDS011;30544;42.196;24.336;2022-09-03T04:22:53;33.35;;;17.48;;
26375;SDS011;30544;42.196;24.336;2022-09-03T04:25:19;36.67;;;17.77;;
26375;SDS011;30544;42.196;24.336;2022-09-03T04:27:46;20.10;;;13.05;;
26375;SDS011;30544;42.196;24.336;2022-09-03T04:30:13;20.88;;;10.93;;
26375;SDS011;30544;42.196;24.336;2022-09-03T04:32:41;47.20;;;19.52;;
26375;SDS011;30544;42.196;24.336;2022-09-03T04:35:22;24.70;;;12.63;;
26375;SDS011;30544;42.196;24.336;2022-09-03T04:37:57;21.65;;;12.07;;
26375;SDS011;30544;42.196;24.336;2022-09-03T04:40:24;29.10;;;16.83;;
26375;SDS011;30544;42.196;24.336;2022-09-03T04:42:55;27.52;;;14.82;;
26375;SDS011;30544;42.196;24.336;2022-09-03T04:45:23;32.80;;;18.67;;
26375;SDS011;30544;42.196;24.336;2022-09-03T04:47:57;26.08;;;13.32;;
26375;SDS011;30544;42.196;24.336;2022-09-03T04:50:26;23.98;;;14.60;;
26375;SDS011;30544;42.196;24.336;2022-09-03T04:52:53;24.83;;;12.93;;
26375;SDS011;30544;42.196;24.336;2022-09-03T04:55:22;26.52;;;15.02;;
26375;SDS011;30544;42.196;24.336;2022-09-03T04:57:49;23.05;;;13.23;;
26375;SDS011;30544;42.196;24.336;2022-09-03T05:00:16;68.13;;;31.90;;
26375;SDS011;30544;42.196;24.336;2022-09-03T05:02:44;22.85;;;13.27;;
26375;SDS011;30544;42.196;24.336;2022-09-03T05:05:13;23.63;;;13.77;;
26375;SDS011;30544;42.196;24.336;2022-09-03T05:07:42;35.70;;;19.00;;
26375;SDS011;30544;42.196;24.336;2022-09-03T05:10:10;21.83;;;12.07;;
26375;SDS011;30544;42.196;24.336;2022-09-03T05:12:40;24.42;;;11.35;;
26375;SDS011;30544;42.196;24.336;2022-09-03T05:15:07;20.05;;;12.68;;
26375;SDS011;30544;42.196;24.336;2022-09-03T05:17:34;20.67;;;13.05;;
26375;SDS011;30544;42.196;24.336;2022-09-03T05:20:03;16.00;;;11.35;;
26375;SDS011;30544;42.196;24.336;2022-09-03T05:22:31;19.45;;;11.90;;
26375;SDS011;30544;42.196;24.336;2022-09-03T05:25:00;22.55;;;11.82;;
26375;SDS011;30544;42.196;24.336;2022-09-03T05:27:27;22.73;;;11.25;;
26375;SDS011;30544;42.196;24.336;2022-09-03T05:29:56;16.67;;;10.90;;
26375;SDS011;30544;42.196;24.336;2022-09-03T05:32:22;24.58;;;12.07;;
26375;SDS011;30544;42.196;24.336;2022-09-03T05:34:52;23.42;;;11.85;;
26375;SDS011;30544;42.196;24.336;2022-09-03T05:37:19;19.20;;;11.23;;
26375;SDS011;30544;42.196;24.336;2022-09-03T05:39:46;17.67;;;10.75;;
26375;SDS011;30544;42.196;24.336;2022-09-03T05:42:14;20.33;;;10.48;;
26375;SDS011;30544;42.196;24.336;2022-09-03T05:44:41;18.73;;;9.73;;
26375;SDS011;30544;42.196;24.336;2022-09-03T05:47:08;16.55;;;10.20;;
26375;SDS011;30544;42.196;24.336;2022-09-03T05:49:35;17.17;;;10.25;;
26375;SDS011;30544;42.196;24.336;2022-09-03T05:52:02;17.17;;;9.48;;
26375;SDS011;30544;42.196;24.336;2022-09-03T05:54:29;20.08;;;9.35;;
26375;SDS011;30544;42.196;24.336;2022-09-03T05:56:56;15.98;;;9.32;;
26375;SDS011;30544;42.196;24.336;2022-09-03T05:59:24;14.68;;;9.20;;
26375;SDS011;30544;42.196;24.336;2022-09-03T06:01:51;13.15;;;8.63;;
26375;SDS011;30544;42.196;24.336;2022-09-03T06:04:18;13.93;;;9.13;;
26375;SDS011;30544;42.196;24.336;2022-09-03T06:06:45;14.35;;;8.60;;
26375;SDS011;30544;42.196;24.336;2022-09-03T06:09:13;13.45;;;8.38;;
26375;SDS011;30544;42.196;24.336;2022-09-03T06:11:42;15.52;;;8.68;;
26375;SDS011;30544;42.196;24.336;2022-09-03T06:14:10;12.85;;;8.45;;
26375;SDS011;30544;42.196;24.336;2022-09-03T06:16:40;12.05;;;8.20;;
26375;SDS011;30544;42.196;24.336;2022-09-03T06:19:08;12.05;;;8.20;;
26375;SDS011;30544;42.196;24.336;2022-09-03T06:21:38;14.93;;;7.30;;
26375;SDS011;30544;42.196;24.336;2022-09-03T06:24:07;11.95;;;7.30;;
26375;SDS011;30544;42.196;24.336;2022-09-03T06:26:34;13.63;;;6.57;;
26375;SDS011;30544;42.196;24.336;2022-09-03T06:29:01;13.82;;;7.03;;
26375;SDS011;30544;42.196;24.336;2022-09-03T06:31:28;10.70;;;7.07;;
26375;SDS011;30544;42.196;24.336;2022-09-03T06:33:57;12.15;;;7.45;;
26375;SDS011;30544;42.196;24.336;2022-09-03T06:36:24;15.38;;;6.80;;
26375;SDS011;30544;42.196;24.336;2022-09-03T06:38:52;11.07;;;6.75;;
26375;SDS011;30544;42.196;24.336;2022-09-03T06:41:20;21.38;;;7.80;;
26375;SDS011;30544;42.196;24.336;2022-09-03T06:43:49;11.90;;;6.72;;
26375;SDS011;30544;42.196;24.336;2022-09-03T06:46:18;14.38;;;8.60;;
26375;SDS011;30544;42.196;24.336;2022-09-03T06:48:46;41.78;;;19.30;;
26375;SDS011;30544;42.196;24.336;2022-09-03T06:51:17;8.43;;;4.93;;
26375;SDS011;30544;42.196;24.336;2022-09-03T06:53:46;11.90;;;6.45;;
26375;SDS011;30544;42.196;24.336;2022-09-03T06:56:14;22.70;;;10.25;;
26375;SDS011;30544;42.196;24.336;2022-09-03T06:58:44;38.25;;;17.70;;
26375;SDS011;30544;42.196;24.336;2022-09-03T07:01:13;17.58;;;7.32;;
26375;SDS011;30544;42.196;24.336;2022-09-03T07:03:42;11.80;;;6.38;;
26375;SDS011;30544;42.196;24.336;2022-09-03T07:06:10;13.65;;;5.20;;
26375;SDS011;30544;42.196;24.336;2022-09-03T07:08:40;10.93;;;7.00;;
26375;SDS011;30544;42.196;24.336;2022-09-03T07:11:08;6.20;;;4.13;;
26375;SDS011;30544;42.196;24.336;2022-09-03T07:13:37;8.52;;;3.67;;
26375;SDS011;30544;42.196;24.336;2022-09-03T07:16:06;7.93;;;4.10;;
26375;SDS011;30544;42.196;24.336;2022-09-03T07:18:35;5.43;;;3.75;;
26375;SDS011;30544;42.196;24.336;2022-09-03T07:21:02;10.48;;;4.40;;
26375;SDS011;30544;42.196;24.336;2022-09-03T07:23:31;9.77;;;4.63;;
26375;SDS011;30544;42.196;24.336;2022-09-03T07:26:00;7.30;;;4.30;;
26375;SDS011;30544;42.196;24.336;2022-09-03T07:28:29;8.27;;;4.50;;
26375;SDS011;30544;42.196;24.336;2022-09-03T07:31:00;10.50;;;5.63;;
26375;SDS011;30544;42.196;24.336;2022-09-03T07:33:29;9.50;;;5.43;;
26375;SDS011;30544;42.196;24.336;2022-09-03T07:36:01;10.68;;;5.80;;
26375;SDS011;30544;42.196;24.336;2022-09-03T07:38:28;8.27;;;5.55;;
26375;SDS011;30544;42.196;24.336;2022-09-03T07:40:56;10.18;;;5.93;;
26375;SDS011;30544;42.196;24.336;2022-09-03T07:43:26;9.75;;;6.50;;
26375;SDS011;30544;42.196;24.336;2022-09-03T07:45:53;28.25;;;16.35;;
26375;SDS011;30544;42.196;24.336;2022-09-03T07:48:21;12.05;;;7.95;;
26375;SDS011;30544;42.196;24.336;2022-09-03T07:50:48;12.00;;;6.15;;
26375;SDS011;30544;42.196;24.336;2022-09-03T07:53:15;21.38;;;11.55;;
26375;SDS011;30544;42.196;24.336;2022-09-03T07:55:42;18.52;;;9.07;;
26375;SDS011;30544;42.196;24.336;2022-09-03T07:58:09;12.25;;;6.65;;
26375;SDS011;30544;42.196;24.336;2022-09-03T08:00:37;43.88;;;25.33;;
26375;SDS011;30544;42.196;24.336;2022-09-03T08:03:04;11.27;;;6.70;;
26375;SDS011;30544;42.196;24.336;2022-09-03T08:05:33;12.23;;;6.22;;
26375;SDS011;30544;42.196;24.336;2022-09-03T08:08:00;15.85;;;9.73;;
26375;SDS011;30544;42.196;24.336;2022-09-03T08:10:27;10.98;;;6.82;;
26375;SDS011;30544;42.196;24.336;2022-09-03T08:12:56;14.25;;;6.78;;
26375;SDS011;30544;42.196;24.336;2022-09-03T08:15:24;11.40;;;7.10;;
26375;SDS011;30544;42.196;24.336;2022-09-03T08:17:52;9.32;;;6.63;;
26375;SDS011;30544;42.196;24.336;2022-09-03T08:20:19;9.55;;;6.30;;
26375;SDS011;30544;42.196;24.336;2022-09-03T08:22:46;12.35;;;8.45;;
26375;SDS011;30544;42.196;24.336;2022-09-03T08:25:13;11.57;;;6.53;;
26375;SDS011;30544;42.196;24.336;2022-09-03T08:27:40;10.70;;;6.43;;
26375;SDS011;30544;42.196;24.336;2022-09-03T08:30:07;10.13;;;6.22;;
26375;SDS011;30544;42.196;24.336;2022-09-03T08:32:36;16.17;;;6.85;;
26375;SDS011;30544;42.196;24.336;2022-09-03T08:35:05;15.82;;;7.28;;
26375;SDS011;30544;42.196;24.336;2022-09-03T08:37:33;13.90;;;7.28;;
26375;SDS011;30544;42.196;24.336;2022-09-03T08:40:00;10.82;;;6.90;;
26375;SDS011;30544;42.196;24.336;2022-09-03T08:42:32;9.55;;;7.00;;
26375;SDS011;30544;42.196;24.336;2022-09-03T08:45:11;9.85;;;7.60;;
26375;SDS011;30544;42.196;24.336;2022-09-03T08:47:43;9.05;;;6.70;;
26375;SDS011;30544;42.196;24.336;2022-09-03T08:50:18;10.82;;;7.03;;
26375;SDS011;30544;42.196;24.336;2022-09-03T08:52:51;8.98;;;6.90;;
26375;SDS011;30544;42.196;24.336;2022-09-03T08:55:22;13.50;;;8.82;;
26375;SDS011;30544;42.196;24.336;2022-09-03T08:57:54;13.63;;;8.50;;
26375;SDS011;30544;42.196;24.336;2022-09-03T09:00:38;32.17;;;15.98;;
26375;SDS011;30544;42.196;24.336;2022-09-03T09:03:21;26.33;;;8.55;;
26375;SDS011;30544;42.196;24.336;2022-09-03T09:06:02;13.48;;;7.82;;
26375;SDS011;30544;42.196;24.336;2022-09-03T09:08:38;13.40;;;8.50;;
26375;SDS011;30544;42.196;24.336;2022-09-03T09:11:17;44.50;;;22.95;;
26375;SDS011;30544;42.196;24.336;2022-09-03T09:13:54;43.40;;;23.50;;
26375;SDS011;30544;42.196;24.336;2022-09-03T09:16:30;22.60;;;14.18;;
26375;SDS011;30544;42.196;24.336;2022-09-03T09:19:08;19.50;;;8.90;;
26375;SDS011;30544;42.196;24.336;2022-09-03T09:21:45;14.18;;;9.63;;
26375;SDS011;30544;42.196;24.336;2022-09-03T09:24:17;10.52;;;7.50;;
26375;SDS011;30544;42.196;24.336;2022-09-03T09:26:47;14.15;;;10.38;;
26375;SDS011;30544;42.196;24.336;2022-09-03T09:29:15;9.18;;;6.72;;
26375;SDS011;30544;42.196;24.336;2022-09-03T09:31:42;13.43;;;8.48;;
26375;SDS011;30544;42.196;24.336;2022-09-03T09:34:10;26.10;;;14.43;;
26375;SDS011;30544;42.196;24.336;2022-09-03T09:36:41;17.45;;;7.60;;
26375;SDS011;30544;42.196;24.336;2022-09-03T09:39:12;14.60;;;8.25;;
26375;SDS011;30544;42.196;24.336;2022-09-03T09:41:40;15.55;;;9.35;;
26375;SDS011;30544;42.196;24.336;2022-09-03T09:44:16;13.55;;;9.07;;
26375;SDS011;30544;42.196;24.336;2022-09-03T09:46:44;13.68;;;7.00;;
26375;SDS011;30544;42.196;24.336;2022-09-03T09:49:28;14.32;;;8.75;;
26375;SDS011;30544;42.196;24.336;2022-09-03T09:52:00;8.52;;;7.35;;
26375;SDS011;30544;42.196;24.336;2022-09-03T09:54:29;14.45;;;7.07;;
26375;SDS011;30544;42.196;24.336;2022-09-03T09:57:01;9.65;;;7.38;;
26375;SDS011;30544;42.196;24.336;2022-09-03T09:59:30;17.25;;;9.15;;
26375;SDS011;30544;42.196;24.336;2022-09-03T10:02:03;8.13;;;5.57;;
26375;SDS011;30544;42.196;24.336;2022-09-03T10:04:34;5.72;;;4.90;;
26375;SDS011;30544;42.196;24.336;2022-09-03T10:07:03;6.28;;;4.40;;
26375;SDS011;30544;42.196;24.336;2022-09-03T10:09:45;5.72;;;3.97;;
26375;SDS011;30544;42.196;24.336;2022-09-03T10:12:25;6.72;;;4.28;;
26375;SDS011;30544;42.196;24.336;2022-09-03T10:14:58;4.50;;;3.70;;
26375;SDS011;30544;42.196;24.336;2022-09-03T10:17:34;12.20;;;8.18;;
26375;SDS011;30544;42.196;24.336;2022-09-03T10:20:10;53.53;;;21.73;;
26375;SDS011;30544;42.196;24.336;2022-09-03T10:23:04;24.33;;;11.93;;
26375;SDS011;30544;42.196;24.336;2022-09-03T10:25:39;20.85;;;9.43;;
26375;SDS011;30544;42.196;24.336;2022-09-03T10:28:17;19.52;;;10.90;;
26375;SDS011;30544;42.196;24.336;2022-09-03T10:30:55;19.73;;;11.63;;
26375;SDS011;30544;42.196;24.336;2022-09-03T10:33:44;5.03;;;3.50;;
26375;SDS011;30544;42.196;24.336;2022-09-03T10:36:16;4.43;;;3.20;;
26375;SDS011;30544;42.196;24.336;2022-09-03T10:38:47;3.92;;;2.88;;
26375;SDS011;30544;42.196;24.336;2022-09-03T10:41:24;4.43;;;3.70;;
26375;SDS011;30544;42.196;24.336;2022-09-03T10:44:08;3.72;;;2.90;;
26375;SDS011;30544;42.196;24.336;2022-09-03T10:47:02;5.35;;;4.45;;
26375;SDS011;30544;42.196;24.336;2022-09-03T10:49:45;5.55;;;3.80;;
26375;SDS011;30544;42.196;24.336;2022-09-03T10:52:16;5.15;;;3.78;;
26375;SDS011;30544;42.196;24.336;2022-09-03T10:54:56;6.68;;;4.63;;
26375;SDS011;30544;42.196;24.336;2022-09-03T10:57:36;13.35;;;4.63;;
26375;SDS011;30544;42.196;24.336;2022-09-03T11:00:12;5.30;;;4.35;;
26375;SDS011;30544;42.196;24.336;2022-09-03T11:02:55;6.13;;;3.33;;
26375;SDS011;30544;42.196;24.336;2022-09-03T11:05:36;2.97;;;2.63;;
26375;SDS011;30544;42.196;24.336;2022-09-03T11:08:09;5.15;;;2.50;;
26375;SDS011;30544;42.196;24.336;2022-09-03T11:13:11;2.88;;;2.40;;
26375;SDS011;30544;42.196;24.336;2022-09-03T11:15:45;8.18;;;2.70;;
26375;SDS011;30544;42.196;24.336;2022-09-03T11:18:17;4.65;;;2.40;;
26375;SDS011;30544;42.196;24.336;2022-09-03T11:20:49;3.58;;;2.13;;
26375;SDS011;30544;42.196;24.336;2022-09-03T11:23:18;3.15;;;2.78;;
26375;SDS011;30544;42.196;24.336;2022-09-03T11:25:50;3.10;;;2.30;;
26375;SDS011;30544;42.196;24.336;2022-09-03T11:28:25;5.15;;;2.10;;
26375;SDS011;30544;42.196;24.336;2022-09-03T11:31:04;2.45;;;1.90;;
26375;SDS011;30544;42.196;24.336;2022-09-03T11:33:42;6.88;;;2.60;;
26375;SDS011;30544;42.196;24.336;2022-09-03T11:36:12;3.17;;;2.25;;
26375;SDS011;30544;42.196;24.336;2022-09-03T11:38:48;2.08;;;1.85;;
26375;SDS011;30544;42.196;24.336;2022-09-03T11:41:22;3.58;;;1.92;;
26375;SDS011;30544;42.196;24.336;2022-09-03T11:43:52;4.07;;;2.45;;
26375;SDS011;30544;42.196;24.336;2022-09-03T11:46:27;5.43;;;3.40;;
26375;SDS011;30544;42.196;24.336;2022-09-03T11:48:56;8.05;;;2.95;;
26375;SDS011;30544;42.196;24.336;2022-09-03T11:51:34;4.03;;;2.72;;
26375;SDS011;30544;42.196;24.336;2022-09-03T11:54:04;9.30;;;4.47;;
26375;SDS011;30544;42.196;24.336;2022-09-03T11:56:32;28.17;;;13.80;;
26375;SDS011;30544;42.196;24.336;2022-09-03T11:59:13;52.15;;;23.45;;
26375;SDS011;30544;42.196;24.336;2022-09-03T12:01:45;15.38;;;9.68;;
26375;SDS011;30544;42.196;24.336;2022-09-03T12:04:17;13.68;;;6.00;;
26375;SDS011;30544;42.196;24.336;2022-09-03T12:09:49;16.08;;;8.82;;
26375;SDS011;30544;42.196;24.336;2022-09-03T12:12:42;12.68;;;6.70;;
26375;SDS011;30544;42.196;24.336;2022-09-03T12:15:24;25.23;;;12.48;;
26375;SDS011;30544;42.196;24.336;2022-09-03T12:20:46;3.55;;;1.85;;
26375;SDS011;30544;42.196;24.336;2022-09-03T12:23:25;2.55;;;1.70;;
26375;SDS011;30544;42.196;24.336;2022-09-03T12:25:54;3.17;;;2.10;;
26375;SDS011;30544;42.196;24.336;2022-09-03T12:28:23;4.15;;;1.95;;
26375;SDS011;30544;42.196;24.336;2022-09-03T12:31:04;4.35;;;2.17;;
26375;SDS011;30544;42.196;24.336;2022-09-03T12:33:44;3.05;;;2.20;;
26375;SDS011;30544;42.196;24.336;2022-09-03T12:36:12;4.30;;;2.30;;
26375;SDS011;30544;42.196;24.336;2022-09-03T12:38:40;2.58;;;1.98;;
26375;SDS011;30544;42.196;24.336;2022-09-03T12:41:18;3.47;;;2.00;;
26375;SDS011;30544;42.196;24.336;2022-09-03T12:43:49;5.28;;;2.28;;
26375;SDS011;30544;42.196;24.336;2022-09-03T12:46:18;3.03;;;1.83;;
26375;SDS011;30544;42.196;24.336;2022-09-03T12:48:53;2.38;;;1.55;;
26375;SDS011;30544;42.196;24.336;2022-09-03T12:51:21;4.20;;;1.98;;
26375;SDS011;30544;42.196;24.336;2022-09-03T12:53:49;7.20;;;2.72;;
26375;SDS011;30544;42.196;24.336;2022-09-03T12:56:17;3.78;;;1.80;;
26375;SDS011;30544;42.196;24.336;2022-09-03T12:58:47;1.52;;;1.42;;
26375;SDS011;30544;42.196;24.336;2022-09-03T13:01:20;4.40;;;1.60;;
26375;SDS011;30544;42.196;24.336;2022-09-03T13:03:52;2.65;;;1.70;;
26375;SDS011;30544;42.196;24.336;2022-09-03T13:06:22;2.92;;;1.98;;
26375;SDS011;30544;42.196;24.336;2022-09-03T13:08:51;3.03;;;1.70;;
26375;SDS011;30544;42.196;24.336;2022-09-03T13:11:22;3.67;;;1.98;;
26375;SDS011;30544;42.196;24.336;2022-09-03T13:13:51;5.03;;;2.17;;
26375;SDS011;30544;42.196;24.336;2022-09-03T13:16:27;5.85;;;2.53;;
26375;SDS011;30544;42.196;24.336;2022-09-03T13:19:09;3.53;;;2.35;;
26375;SDS011;30544;42.196;24.336;2022-09-03T13:21:44;2.65;;;2.33;;
26375;SDS011;30544;42.196;24.336;2022-09-03T13:24:21;2.63;;;1.95;;
26375;SDS011;30544;42.196;24.336;2022-09-03T13:27:09;6.05;;;2.10;;
26375;SDS011;30544;42.196;24.336;2022-09-03T13:29:49;4.15;;;2.05;;
26375;SDS011;30544;42.196;24.336;2022-09-03T13:32:34;3.00;;;2.03;;
26375;SDS011;30544;42.196;24.336;2022-09-03T13:35:08;3.50;;;2.17;;
26375;SDS011;30544;42.196;24.336;2022-09-03T13:37:42;3.85;;;2.13;;
26375;SDS011;30544;42.196;24.336;2022-09-03T13:40:14;2.80;;;2.38;;
26375;SDS011;30544;42.196;24.336;2022-09-03T13:42:48;3.30;;;2.70;;
26375;SDS011;30544;42.196;24.336;2022-09-03T13:45:25;2.65;;;2.20;;
26375;SDS011;30544;42.196;24.336;2022-09-03T13:47:59;4.55;;;2.60;;
26375;SDS011;30544;42.196;24.336;2022-09-03T13:50:52;3.83;;;2.67;;
26375;SDS011;30544;42.196;24.336;2022-09-03T13:53:30;3.53;;;2.50;;
26375;SDS011;30544;42.196;24.336;2022-09-03T13:56:06;5.22;;;2.47;;
26375;SDS011;30544;42.196;24.336;2022-09-03T13:58:45;3.13;;;2.60;;
26375;SDS011;30544;42.196;24.336;2022-09-03T14:01:17;3.70;;;2.97;;
26375;SDS011;30544;42.196;24.336;2022-09-03T14:03:51;4.85;;;2.63;;
26375;SDS011;30544;42.196;24.336;2022-09-03T14:06:24;3.75;;;2.60;;
26375;SDS011;30544;42.196;24.336;2022-09-03T14:09:05;4.88;;;2.50;;
26375;SDS011;30544;42.196;24.336;2022-09-03T14:11:45;3.88;;;2.50;;
26375;SDS011;30544;42.196;24.336;2022-09-03T14:14:22;5.13;;;2.33;;
26375;SDS011;30544;42.196;24.336;2022-09-03T14:17:00;6.85;;;2.45;;
26375;SDS011;30544;42.196;24.336;2022-09-03T14:19:33;2.55;;;2.35;;
26375;SDS011;30544;42.196;24.336;2022-09-03T14:22:08;4.07;;;2.50;;
26375;SDS011;30544;42.196;24.336;2022-09-03T14:24:43;9.20;;;2.60;;
26375;SDS011;30544;42.196;24.336;2022-09-03T14:27:21;2.75;;;2.35;;
26375;SDS011;30544;42.196;24.336;2022-09-03T14:29:50;3.05;;;2.20;;
26375;SDS011;30544;42.196;24.336;2022-09-03T14:32:35;6.53;;;2.35;;
26375;SDS011;30544;42.196;24.336;2022-09-03T14:35:26;2.30;;;2.10;;
26375;SDS011;30544;42.196;24.336;2022-09-03T14:40:58;2.93;;;2.50;;
26375;SDS011;30544;42.196;24.336;2022-09-03T14:43:36;7.05;;;2.30;;
26375;SDS011;30544;42.196;24.336;2022-09-03T14:46:22;2.72;;;2.10;;
26375;SDS011;30544;42.196;24.336;2022-09-03T14:49:09;3.63;;;2.35;;
26375;SDS011;30544;42.196;24.336;2022-09-03T14:51:59;3.05;;;2.38;;
26375;SDS011;30544;42.196;24.336;2022-09-03T14:54:39;2.67;;;2.00;;
26375;SDS011;30544;42.196;24.336;2022-09-03T14:57:28;4.55;;;2.00;;
26375;SDS011;30544;42.196;24.336;2022-09-03T15:00:12;3.15;;;2.20;;
26375;SDS011;30544;42.196;24.336;2022-09-03T15:02:46;3.53;;;1.75;;
26375;SDS011;30544;42.196;24.336;2022-09-03T15:05:35;4.75;;;1.85;;